KAVP/AVP METAR and TAF weather

Enter ICAO airport designator
Station Type Date Time Source
KAVP METAR 2022/12/05 15:54 UTC NOAA

KAVP 051554Z AUTO 00000KT 10SM CLR 03/M06 A3021 RMK AO2 SLP237 T00281056


Station Type Date Time Source
KAVP Decoded METAR 2022/12/05 15:54 UTC NOAA

WILKES-BARRE/SCRANTON INTERNATIONAL , PA, United States (KAVP) 41-20N 75-44W 291M
Dec 05, 2022 - 10:54 AM EST / 2022.12.05 1554 UTC
Wind: Calm:0
Visibility: 10 mile(s):0
Sky conditions: clear
Temperature: 37.0 F (2.8 C)
Dew Point: 21.9 F (-5.6 C)
Relative Humidity: 53%
Pressure (altimeter): 30.21 in. Hg (1023 hPa)
ob: KAVP 051554Z AUTO 00000KT 10SM CLR 03/M06 A3021 RMK AO2 SLP237 T00281056
cycle: 16

Station Type Date Time Source
KAVP TAF 2022/12/05 12:28 UTC NOAA

TAF KAVP 051126Z 0512/0612 VRB03KT P6SM SKC
FM051700 21007G16KT P6SM SCT230
FM060800 15004KT P6SM BKN024

Example: see airport list